Time;durP1;ratioP1;P1;durP2;ratioP2;P2;SDS_P1;SDS_P2;PMS_P1;PMS_P2;Temp;Humidity;BMP_temperature;BMP_pressure;BME280_temperature;BME280_humidity;BME280_pressure;Samples;Min_cycle;Max_cycle;Signal;HPM_P1;HPM_P2
2023/06/15 00:01:15;;;;;;;4.72;3.15;;;;;;;27.01;46.26;101018.50;143729;582;46025;-81
2023/06/15 00:03:44;;;;;;;3.10;2.72;;;;;;;27.01;46.00;101017.69;143729;654;47002;-80
2023/06/15 00:06:11;;;;;;;4.85;3.25;;;;;;;27.01;45.82;101013.00;143724;625;47006;-80
2023/06/15 00:08:38;;;;;;;4.53;3.08;;;;;;;27.00;45.91;101013.31;143726;708;47004;-81
2023/06/15 00:11:05;;;;;;;4.30;3.15;;;;;;;26.99;45.68;101015.25;143729;606;45923;-81
2023/06/15 00:13:32;;;;;;;4.30;2.90;;;;;;;27.00;45.04;101021.56;143732;694;45010;-81
2023/06/15 00:15:59;;;;;;;4.78;3.42;;;;;;;26.99;44.88;101015.25;143729;582;45924;-81
2023/06/15 00:18:26;;;;;;;3.37;3.08;;;;;;;27.00;44.38;101029.84;143730;664;45012;-81
2023/06/15 00:20:55;;;;;;;10.18;3.60;;;;;;;27.01;44.80;101020.44;143723;579;49008;-80
2023/06/15 00:23:26;;;;;;;4.55;3.15;;;;;;;27.01;44.72;101021.25;143732;578;45010;-80
2023/06/15 00:25:56;;;;;;;3.50;2.97;;;;;;;27.02;43.95;101027.59;143722;566;47010;-81
2023/06/15 00:28:23;;;;;;;4.10;3.12;;;;;;;27.01;43.63;101018.50;143721;605;48004;-81
2023/06/15 00:30:50;;;;;;;4.12;2.72;;;;;;;27.00;43.90;101016.91;143730;570;45010;-80
2023/06/15 00:33:17;;;;;;;7.68;3.25;;;;;;;26.99;43.53;101018.00;143724;646;47004;-81
2023/06/15 00:35:43;;;;;;;3.25;2.83;;;;;;;26.97;44.15;101000.97;143730;608;45012;-80
2023/06/15 00:38:19;;;;;;;5.12;3.30;;;;;;;26.96;44.77;100993.81;143728;567;46004;-85
2023/06/15 00:40:48;;;;;;;3.70;2.70;;;;;;;26.97;44.53;100994.62;143730;582;45010;-81
2023/06/15 00:43:15;;;;;;;5.15;3.10;;;;;;;26.99;44.59;101007.00;143729;601;46006;-81
2023/06/15 00:45:42;;;;;;;5.43;2.70;;;;;;;26.99;44.77;101006.16;143728;660;46010;-81
2023/06/15 00:48:09;;;;;;;5.45;3.40;;;;;;;26.98;44.88;101005.34;143725;588;49006;-80
2023/06/15 00:50:38;;;;;;;5.05;3.15;;;;;;;26.99;44.72;101001.47;143727;606;46008;-80
2023/06/15 00:53:06;;;;;;;3.55;2.78;;;;;;;26.97;44.89;100998.19;143730;631;46004;-82
2023/06/15 00:55:34;;;;;;;3.50;2.83;;;;;;;26.98;44.94;101002.59;143723;581;47010;-82
2023/06/15 00:58:02;;;;;;;4.93;3.55;;;;;;;26.99;44.95;101000.66;143727;697;47004;-82
2023/06/15 01:00:37;;;;;;;4.72;3.40;;;;;;;26.98;44.61;101010.88;143729;643;45922;-81
2023/06/15 01:03:06;;;;;;;5.35;3.22;;;;;;;26.99;44.49;101012.50;143730;624;47004;-80
2023/06/15 01:05:36;;;;;;;4.05;3.47;;;;;;;26.99;44.87;101014.41;143730;582;45925;-80
2023/06/15 01:08:06;;;;;;;3.65;2.90;;;;;;;26.97;45.33;101013.91;143728;568;46015;-81
2023/06/15 01:10:34;;;;;;;3.42;3.00;;;;;;;26.94;44.95;101021.66;143724;592;47008;-80
2023/06/15 01:13:02;;;;;;;6.50;3.10;;;;;;;26.91;44.54;101008.50;143727;747;46007;-80
2023/06/15 01:15:29;;;;;;;4.32;3.83;;;;;;;26.91;44.27;101005.75;143725;601;47010;-81
2023/06/15 01:17:59;;;;;;;6.32;3.58;;;;;;;26.90;44.28;101006.87;143731;584;46004;-81
2023/06/15 01:20:39;;;;;;;4.65;3.33;;;;;;;26.90;44.52;101003.28;143728;595;46017;-81
2023/06/15 01:23:43;;;;;;;5.00;3.10;;;;;;;26.88;43.89;101000.00;143727;563;47004;-80
2023/06/15 01:26:16;;;;;;;4.93;3.30;;;;;;;26.85;43.93;100998.69;143716;615;51011;-81
2023/06/15 01:28:46;;;;;;;3.42;3.08;;;;;;;26.84;43.50;100997.03;143714;568;57005;-79
2023/06/15 01:31:13;;;;;;;5.45;3.47;;;;;;;26.83;43.29;101002.87;143729;572;46004;-80
2023/06/15 01:33:50;;;;;;;6.85;3.25;;;;;;;26.81;43.09;100991.31;143733;568;45011;-80
2023/06/15 01:36:19;;;;;;;4.72;3.00;;;;;;;26.81;43.22;100997.66;143724;595;47013;-81
2023/06/15 01:38:49;;;;;;;5.97;2.87;;;;;;;26.79;43.09;100997.09;143729;642;46004;-81
2023/06/15 01:41:18;;;;;;;3.97;3.17;;;;;;;26.78;42.83;100992.69;143728;614;46923;-81
2023/06/15 01:43:46;;;;;;;5.25;2.92;;;;;;;26.78;42.86;100998.22;143730;657;46004;-81
2023/06/15 01:46:13;;;;;;;4.53;3.17;;;;;;;26.75;42.65;100996.06;143730;589;45925;-80
2023/06/15 01:48:40;;;;;;;6.82;3.65;;;;;;;26.74;43.08;100995.25;143726;633;47004;-81
2023/06/15 01:51:07;;;;;;;3.12;2.83;;;;;;;26.73;42.87;101001.06;143729;598;45923;-80
2023/06/15 01:53:33;;;;;;;4.15;3.17;;;;;;;26.69;43.00;100995.31;143726;576;48006;-81
2023/06/15 01:56:00;;;;;;;5.70;3.42;;;;;;;26.67;43.28;100996.75;143729;593;46012;-80
2023/06/15 01:58:27;;;;;;;4.03;3.37;;;;;;;26.64;43.52;100989.91;143727;706;46006;-79
2023/06/15 02:00:54;;;;;;;5.28;3.70;;;;;;;26.64;43.73;100993.47;143724;567;48008;-80
2023/06/15 02:03:21;;;;;;;4.37;3.20;;;;;;;26.63;43.90;100991.03;143723;658;47004;-82
2023/06/15 02:05:48;;;;;;;3.62;3.00;;;;;;;26.61;43.50;100990.53;143726;578;46012;-80
2023/06/15 02:08:15;;;;;;;4.35;3.30;;;;;;;26.61;43.75;101001.53;143725;670;47006;-81
2023/06/15 02:10:41;;;;;;;6.15;3.60;;;;;;;26.59;43.81;101006.53;143730;666;45011;-81
2023/06/15 02:13:11;;;;;;;5.37;3.03;;;;;;;26.56;44.02;100996.94;143729;597;47004;-80
2023/06/15 02:15:38;;;;;;;5.20;3.50;;;;;;;26.55;43.98;101000.81;143729;648;45925;-81
2023/06/15 02:18:11;;;;;;;6.93;3.53;;;;;;;26.54;44.03;100990.06;143731;698;45013;-80
2023/06/15 02:20:40;;;;;;;5.63;3.90;;;;;;;26.55;44.08;100997.22;143728;612;47008;-82
2023/06/15 02:23:07;;;;;;;8.05;3.30;;;;;;;26.53;43.93;100997.53;143728;726;47004;-81
2023/06/15 02:25:34;;;;;;;4.28;3.45;;;;;;;26.54;43.68;100995.59;143731;567;45012;-81
2023/06/15 02:28:00;;;;;;;6.12;3.50;;;;;;;26.53;43.38;100994.78;143729;589;46004;-81
2023/06/15 02:30:27;;;;;;;5.00;3.20;;;;;;;26.51;43.33;100991.50;143725;572;47008;-81
2023/06/15 02:32:55;;;;;;;5.10;3.50;;;;;;;26.51;43.61;100999.78;143729;658;46006;-80
2023/06/15 02:35:22;;;;;;;6.28;4.15;;;;;;;26.51;43.94;100998.94;143718;712;50010;-80
2023/06/15 02:37:49;;;;;;;5.20;3.37;;;;;;;26.51;43.21;100998.94;143730;567;45012;-80
2023/06/15 02:40:16;;;;;;;6.72;3.42;;;;;;;26.49;43.58;101005.56;143722;625;47008;-80
2023/06/15 02:42:43;;;;;;;4.07;3.67;;;;;;;26.48;43.22;101000.34;143732;669;45010;-80
2023/06/15 02:45:10;;;;;;;4.87;3.62;;;;;;;26.48;43.71;101009.44;143729;643;45924;-80
2023/06/15 02:47:37;;;;;;;3.58;3.12;;;;;;;26.48;43.85;101020.44;143729;569;45929;-81
2023/06/15 02:50:05;;;;;;;4.18;3.78;;;;;;;26.48;43.54;101020.44;143721;584;47009;-81
2023/06/15 02:52:32;;;;;;;4.10;3.58;;;;;;;26.47;43.48;101023.50;143730;646;47006;-81
2023/06/15 02:55:13;;;;;;;4.60;3.65;;;;;;;26.46;43.01;101022.72;143721;806;47012;-81
2023/06/15 02:57:47;;;;;;;5.35;3.20;;;;;;;26.45;42.02;101029.34;143727;623;46007;-82
2023/06/15 03:00:13;;;;;;;;;;;;;;;26.48;41.44;101036.97;143728;986;47008;-82
2023/06/15 03:02:42;;;;;;;5.75;3.80;;;;;;;26.50;41.26;101028.44;143733;684;46010;-82
2023/06/15 03:05:10;;;;;;;4.90;3.62;;;;;;;26.49;41.23;101027.59;143730;581;45925;-80
2023/06/15 03:07:37;;;;;;;4.07;3.35;;;;;;;26.50;41.26;101025.69;143729;621;46006;-81
2023/06/15 03:10:04;;;;;;;6.28;3.33;;;;;;;26.48;41.71;101023.19;143729;662;46923;-80
2023/06/15 03:12:31;;;;;;;4.70;3.33;;;;;;;26.45;41.78;101023.00;143731;574;45010;-82
2023/06/15 03:15:01;;;;;;;5.25;3.33;;;;;;;26.44;41.66;101019.44;143730;591;45012;-80
2023/06/15 03:17:29;;;;;;;6.47;3.40;;;;;;;26.44;41.44;101018.59;143725;676;47004;-81
2023/06/15 03:19:55;;;;;;;5.50;3.10;;;;;;;26.42;41.50;101010.66;143727;622;47009;-81
2023/06/15 03:22:24;;;;;;;5.62;3.47;;;;;;;26.42;41.47;101012.56;143730;633;47006;-81
2023/06/15 03:24:54;;;;;;;4.30;3.30;;;;;;;26.40;41.93;101010.13;143725;609;47004;-81
2023/06/15 03:27:22;;;;;;;6.80;3.17;;;;;;;26.40;41.82;101007.38;143729;597;45929;-81
2023/06/15 03:29:49;;;;;;;7.07;3.80;;;;;;;26.39;41.96;100991.97;143730;650;45010;-80
2023/06/15 03:32:16;;;;;;;6.87;3.62;;;;;;;26.38;41.90;100995.81;143731;597;46006;-80
2023/06/15 03:34:43;;;;;;;5.90;3.47;;;;;;;26.40;42.21;100998.28;143730;613;45012;-81
2023/06/15 03:37:10;;;;;;;6.00;3.65;;;;;;;26.38;42.24;100995.81;143729;568;46006;-81
2023/06/15 03:39:37;;;;;;;6.95;3.70;;;;;;;26.39;42.76;100993.88;143729;734;45923;-80
2023/06/15 03:42:05;;;;;;;5.95;4.45;;;;;;;26.37;43.00;100985.94;143728;570;45021;-81
2023/06/15 03:44:32;;;;;;;5.60;4.15;;;;;;;26.38;42.87;100982.06;143727;701;46031;-81
2023/06/15 03:46:58;;;;;;;12.23;4.25;;;;;;;26.38;43.26;100978.50;143729;666;46013;-81
2023/06/15 03:49:26;;;;;;;11.18;3.95;;;;;;;26.38;43.34;100982.06;143726;671;47008;-81
2023/06/15 03:51:53;;;;;;;6.45;4.12;;;;;;;26.37;43.51;100991.44;143728;652;48002;-80
2023/06/15 03:54:20;;;;;;;5.80;4.20;;;;;;;26.36;42.96;100987.03;143724;566;47010;-80
2023/06/15 03:56:47;;;;;;;6.37;4.45;;;;;;;26.36;42.17;100986.25;143727;612;47007;-80
2023/06/15 03:59:14;;;;;;;7.03;4.32;;;;;;;26.36;42.57;100989.81;143725;584;47008;-81
2023/06/15 04:01:42;;;;;;;8.30;4.78;;;;;;;26.37;42.18;100990.63;143730;583;47002;-80
2023/06/15 04:04:10;;;;;;;5.22;4.30;;;;;;;26.37;43.06;100990.63;143727;575;46010;-81
2023/06/15 04:06:38;;;;;;;5.25;3.92;;;;;;;26.35;43.20;100990.13;143724;693;47006;-81
2023/06/15 04:09:05;;;;;;;7.12;4.32;;;;;;;26.35;43.58;100990.91;143729;575;45923;-81
2023/06/15 04:11:32;;;;;;;7.82;4.10;;;;;;;26.35;43.37;100996.41;143732;567;45010;-81
2023/06/15 04:13:58;;;;;;;5.22;3.95;;;;;;;26.36;43.08;100998.06;143729;570;45924;-81
2023/06/15 04:16:25;;;;;;;5.62;4.53;;;;;;;26.37;43.00;101005.22;143710;702;55011;-81
2023/06/15 04:18:52;;;;;;;6.50;4.00;;;;;;;26.38;43.23;101001.34;143729;567;45923;-80
2023/06/15 04:21:19;;;;;;;6.95;4.85;;;;;;;26.39;42.93;101014.00;143730;628;46004;-80
2023/06/15 04:23:46;;;;;;;8.15;3.58;;;;;;;26.41;42.17;101009.00;143729;667;45925;-81
2023/06/15 04:26:13;;;;;;;4.85;3.83;;;;;;;26.44;42.36;101013.09;143730;745;45012;-80
2023/06/15 04:28:40;;;;;;;4.93;3.55;;;;;;;26.47;41.86;101012.50;143728;639;46008;-80
2023/06/15 04:31:10;;;;;;;4.78;3.80;;;;;;;26.48;42.88;101025.16;143731;721;46004;-81
2023/06/15 04:33:42;;;;;;;6.53;3.80;;;;;;;26.52;42.59;101025.34;143727;661;46012;-80
2023/06/15 04:36:12;;;;;;;5.45;3.80;;;;;;;26.54;42.65;101023.97;143727;702;46019;-81
2023/06/15 04:38:49;;;;;;;4.85;3.80;;;;;;;26.57;42.31;101025.28;143728;601;46006;-80
2023/06/15 04:41:22;;;;;;;6.00;3.90;;;;;;;26.59;42.74;101017.53;143727;604;47004;-80
2023/06/15 04:43:49;;;;;;;7.35;4.37;;;;;;;26.61;42.57;101024.38;143729;682;45924;-81
2023/06/15 04:46:17;;;;;;;5.57;3.58;;;;;;;26.63;42.54;101018.59;143729;588;46012;-81
2023/06/15 04:48:44;;;;;;;6.93;4.10;;;;;;;26.67;42.16;101027.88;143728;583;45923;-80
2023/06/15 04:51:11;;;;;;;7.18;3.35;;;;;;;26.71;43.06;101026.16;143729;689;47006;-81
2023/06/15 04:53:42;;;;;;;6.75;3.42;;;;;;;26.75;42.90;101027.19;143726;568;46012;-81
2023/06/15 04:56:09;;;;;;;6.82;3.55;;;;;;;26.78;42.81;101025.75;143726;687;46007;-81
2023/06/15 04:58:36;;;;;;;5.82;3.50;;;;;;;26.81;42.81;101022.44;143726;642;46008;-80
2023/06/15 05:01:04;;;;;;;6.10;3.80;;;;;;;26.84;43.40;101021.00;143727;633;47004;-80
2023/06/15 05:03:31;;;;;;;5.43;3.58;;;;;;;26.86;42.77;101021.53;143729;682;46010;-81
2023/06/15 05:05:58;;;;;;;5.43;4.35;;;;;;;26.88;42.63;101028.41;143725;633;47006;-80
2023/06/15 05:08:25;;;;;;;5.28;3.95;;;;;;;26.92;43.30;101039.63;143730;568;45010;-81
2023/06/15 05:10:52;;;;;;;4.45;3.87;;;;;;;26.91;42.50;101035.22;143725;667;47006;-80
2023/06/15 05:13:29;;;;;;;5.87;3.60;;;;;;;26.94;42.96;101035.44;143730;635;45925;-85
2023/06/15 05:15:56;;;;;;;8.23;3.80;;;;;;;26.98;42.90;101043.94;143731;652;45012;-81
2023/06/15 05:18:23;;;;;;;7.65;4.18;;;;;;;27.04;43.44;101050.19;143730;607;45010;-81
2023/06/15 05:20:50;;;;;;;9.90;4.78;;;;;;;27.07;43.21;101055.91;143730;591;48004;-80
2023/06/15 05:23:19;;;;;;;5.28;3.62;;;;;;;27.11;43.16;101047.81;143730;572;46008;-81
2023/06/15 05:25:46;;;;;;;4.97;3.50;;;;;;;27.16;43.14;101049.69;143721;735;53004;-82
2023/06/15 05:28:14;;;;;;;5.57;3.47;;;;;;;27.19;43.29;101058.16;143731;586;45010;-82
2023/06/15 05:30:41;;;;;;;7.65;4.07;;;;;;;27.22;43.32;101053.97;143727;645;47002;-81
2023/06/15 05:33:08;;;;;;;6.55;3.80;;;;;;;27.23;44.30;101053.69;143731;601;45010;-81
2023/06/15 05:35:34;;;;;;;5.50;4.40;;;;;;;27.26;45.66;101055.00;143719;593;49002;-80
2023/06/15 05:38:01;;;;;;;6.90;3.70;;;;;;;27.29;46.30;101053.59;143723;572;47006;-80
2023/06/15 05:40:28;;;;;;;10.52;3.65;;;;;;;27.30;46.85;101058.81;143722;642;48002;-79
2023/06/15 05:42:55;;;;;;;5.10;3.35;;;;;;;27.30;48.55;101056.06;143727;684;48010;-79
2023/06/15 05:45:22;;;;;;;6.90;4.10;;;;;;;27.23;47.42;101063.87;143729;647;45927;-79
2023/06/15 05:47:48;;;;;;;4.45;4.03;;;;;;;27.23;46.38;101063.87;143729;573;45010;-80
2023/06/15 05:50:16;;;;;;;7.30;4.60;;;;;;;27.24;46.44;101058.09;143733;698;45009;-80
2023/06/15 05:52:42;;;;;;;5.43;3.72;;;;;;;27.27;46.35;101069.62;143729;601;48010;-81
2023/06/15 05:55:09;;;;;;;6.90;4.53;;;;;;;27.30;46.36;101071.75;143733;619;48012;-79
2023/06/15 05:57:36;;;;;;;6.47;3.90;;;;;;;27.33;47.14;101076.69;143720;617;52004;-79
2023/06/15 06:00:04;;;;;;;6.30;3.72;;;;;;;27.35;46.90;101071.69;143739;601;47004;-79
2023/06/15 06:02:31;;;;;;;6.60;4.18;;;;;;;27.37;46.86;101066.69;143729;660;48010;-81
2023/06/15 06:04:58;;;;;;;7.43;3.90;;;;;;;27.37;46.53;101072.19;143735;583;47004;-81
2023/06/15 06:07:25;;;;;;;5.22;3.80;;;;;;;27.38;47.43;101071.88;143734;601;47006;-81
2023/06/15 06:09:52;;;;;;;6.57;3.80;;;;;;;27.40;47.33;101079.88;143737;681;47000;-80
2023/06/15 06:12:18;;;;;;;6.62;4.03;;;;;;;27.45;46.39;101074.22;143720;569;52008;-80
2023/06/15 06:14:45;;;;;;;8.00;3.95;;;;;;;27.48;46.70;101076.41;143732;567;48002;-81
2023/06/15 06:17:12;;;;;;;6.45;4.43;;;;;;;27.52;46.19;101079.41;143733;575;48006;-82
2023/06/15 06:19:39;;;;;;;5.80;3.50;;;;;;;27.50;48.98;101076.94;143738;590;48002;-81
2023/06/15 06:22:06;;;;;;;6.30;3.30;;;;;;;27.42;48.65;101080.38;143727;648;49008;-81
2023/06/15 06:24:33;;;;;;;5.10;3.03;;;;;;;27.45;48.85;101078.94;143737;589;47002;-81
2023/06/15 06:27:00;;;;;;;4.95;3.45;;;;;;;27.47;48.46;101080.28;143716;588;57016;-83
2023/06/15 06:29:27;;;;;;;3.83;3.40;;;;;;;27.52;47.98;101082.97;143740;621;45010;-82
2023/06/15 06:31:55;;;;;;;6.47;3.30;;;;;;;27.57;48.17;101081.25;143735;591;47009;-80
2023/06/15 06:34:22;;;;;;;8.40;3.22;;;;;;;27.52;48.55;101088.50;143737;587;45928;-79
2023/06/15 06:36:48;;;;;;;3.72;3.22;;;;;;;27.54;48.45;101086.25;143729;576;47006;-81
2023/06/15 06:39:16;;;;;;;4.00;3.58;;;;;;;27.60;47.47;101086.16;143741;593;45011;-81
2023/06/15 06:41:43;;;;;;;3.53;3.20;;;;;;;27.64;47.20;101078.88;143733;612;47008;-80
2023/06/15 06:44:10;;;;;;;3.30;2.97;;;;;;;27.60;47.75;101086.16;143735;569;47004;-78
2023/06/15 06:46:37;;;;;;;5.68;3.47;;;;;;;27.51;46.89;101083.28;143739;585;45011;-81
2023/06/15 06:49:04;;;;;;;5.00;3.33;;;;;;;27.46;46.82;101092.44;143738;642;47000;-80
2023/06/15 06:51:31;;;;;;;7.62;3.15;;;;;;;27.54;47.29;101086.25;143737;604;46010;-81
2023/06/15 06:53:57;;;;;;;4.25;3.10;;;;;;;27.47;47.04;101079.50;143732;599;46004;-82
2023/06/15 06:56:26;;;;;;;5.30;3.65;;;;;;;27.54;46.95;101097.28;143729;589;47006;-81
2023/06/15 06:58:53;;;;;;;5.00;4.22;;;;;;;27.61;47.00;101091.34;143732;625;47002;-81
2023/06/15 07:01:20;;;;;;;3.35;2.75;;;;;;;27.66;46.52;101094.03;143721;591;50008;-82
2023/06/15 07:03:47;;;;;;;4.78;2.87;;;;;;;27.69;45.87;101096.19;143731;611;46002;-80
2023/06/15 07:06:13;;;;;;;3.62;2.87;;;;;;;27.74;46.16;101095.25;143724;572;47006;-80
2023/06/15 07:08:41;;;;;;;6.68;3.65;;;;;;;27.74;46.38;101088.91;143732;591;47003;-81
2023/06/15 07:11:08;;;;;;;4.87;3.37;;;;;;;27.77;47.15;101085.53;143730;603;46011;-80
2023/06/15 07:13:34;;;;;;;4.75;3.42;;;;;;;27.81;46.83;101086.56;143732;573;45012;-81
2023/06/15 07:16:02;;;;;;;5.78;2.92;;;;;;;27.85;47.23;101087.59;143731;568;45011;-81
2023/06/15 07:18:28;;;;;;;4.03;3.22;;;;;;;27.79;46.97;101097.09;143734;586;45010;-79
2023/06/15 07:20:55;;;;;;;6.12;3.35;;;;;;;27.77;47.17;101094.66;143732;601;45010;-82
2023/06/15 07:23:22;;;;;;;3.70;3.03;;;;;;;27.72;47.45;101091.97;143732;601;45013;-81
2023/06/15 07:25:53;;;;;;;6.18;3.47;;;;;;;27.77;47.11;101099.34;143727;599;47002;-80
2023/06/15 07:28:20;;;;;;;4.60;3.20;;;;;;;27.86;47.16;101088.41;143733;614;45010;-79
2023/06/15 07:30:55;;;;;;;4.05;2.95;;;;;;;27.87;45.83;101090.03;143728;566;47010;-81
2023/06/15 07:33:22;;;;;;;4.70;3.35;;;;;;;27.91;45.76;101085.53;143733;618;45012;-81
2023/06/15 07:35:49;;;;;;;5.75;3.37;;;;;;;28.05;46.09;101091.06;143729;599;46006;-81
2023/06/15 07:38:16;;;;;;;4.53;3.20;;;;;;;28.03;46.04;101096.88;143734;593;45010;-80
2023/06/15 07:40:43;;;;;;;4.28;3.30;;;;;;;28.01;46.03;101090.03;143733;616;45011;-82
2023/06/15 07:43:10;;;;;;;4.22;3.62;;;;;;;28.05;46.14;101102.09;143730;576;46013;-80
2023/06/15 07:45:37;;;;;;;6.07;3.15;;;;;;;28.05;46.06;101093.81;143731;603;45925;-81
2023/06/15 07:48:06;;;;;;;3.85;3.30;;;;;;;28.12;45.76;101097.00;143727;597;47004;-81
2023/06/15 07:50:33;;;;;;;3.87;3.10;;;;;;;28.17;45.55;101093.28;143729;605;47010;-80
2023/06/15 07:53:00;;;;;;;4.93;3.60;;;;;;;28.26;45.50;101091.44;143728;640;48004;-81
2023/06/15 07:55:26;;;;;;;3.95;3.55;;;;;;;28.31;45.83;101096.88;143731;615;45010;-80
2023/06/15 07:57:53;;;;;;;5.22;3.33;;;;;;;28.35;45.39;101094.31;143727;588;48000;-81
2023/06/15 08:00:21;;;;;;;5.78;3.37;;;;;;;28.39;45.08;101098.88;143730;586;46010;-81
2023/06/15 08:02:48;;;;;;;4.78;3.45;;;;;;;28.42;45.12;101094.66;143729;574;47002;-80
2023/06/15 08:05:15;;;;;;;4.28;3.53;;;;;;;28.43;45.84;101091.63;143726;573;47006;-80
2023/06/15 08:07:42;;;;;;;4.78;3.40;;;;;;;28.39;45.19;101089.78;143734;589;46002;-82
2023/06/15 08:10:10;;;;;;;4.95;3.75;;;;;;;28.41;45.58;101095.81;143728;603;46008;-82
2023/06/15 08:12:36;;;;;;;5.78;3.42;;;;;;;28.45;46.14;101094.06;143732;704;45012;-83
2023/06/15 08:15:03;;;;;;;7.82;3.60;;;;;;;28.46;46.09;101098.44;143729;594;47008;-82
2023/06/15 08:17:30;;;;;;;7.05;3.92;;;;;;;28.49;46.50;101092.31;143733;582;46007;-81
2023/06/15 08:19:57;;;;;;;5.12;3.90;;;;;;;28.49;46.32;101089.53;143730;582;47010;-81
2023/06/15 08:22:24;;;;;;;5.53;3.60;;;;;;;28.52;46.23;101088.94;143731;588;46004;-82
2023/06/15 08:24:51;;;;;;;6.37;3.33;;;;;;;28.54;45.86;101088.59;143730;579;46004;-81
2023/06/15 08:27:18;;;;;;;6.62;3.58;;;;;;;28.56;45.99;101081.66;143731;628;46004;-81
2023/06/15 08:29:45;;;;;;;4.62;3.42;;;;;;;28.60;45.96;101076.31;143731;595;45922;-81
2023/06/15 08:32:13;;;;;;;5.70;3.40;;;;;;;28.62;45.93;101070.47;143730;621;46013;-80
2023/06/15 08:34:41;;;;;;;6.40;4.10;;;;;;;28.62;45.86;101067.69;143730;600;46008;-82
2023/06/15 08:37:10;;;;;;;4.25;3.08;;;;;;;28.53;45.58;101051.88;143732;578;46006;-81
2023/06/15 08:39:37;;;;;;;5.15;3.65;;;;;;;28.44;45.31;101042.69;143729;582;46012;-80
2023/06/15 08:42:04;;;;;;;3.40;3.10;;;;;;;28.43;45.52;101022.53;143729;618;47004;-82
2023/06/15 08:44:32;;;;;;;5.55;3.60;;;;;;;28.37;44.98;101036.78;143728;613;47008;-81
2023/06/15 08:47:03;;;;;;;5.22;3.17;;;;;;;28.18;45.74;101046.06;143732;628;46011;-81
2023/06/15 08:49:33;;;;;;;6.05;3.53;;;;;;;28.28;45.86;101033.97;143725;588;47012;-81
2023/06/15 08:52:02;;;;;;;5.78;3.05;;;;;;;28.24;45.17;101025.47;143723;595;48004;-83
2023/06/15 08:54:33;;;;;;;6.10;3.25;;;;;;;28.23;45.19;101020.25;143731;668;45925;-82
2023/06/15 08:57:00;;;;;;;3.95;3.33;;;;;;;28.39;44.55;101015.19;143732;630;46006;-82
2023/06/15 08:59:28;;;;;;;5.68;3.28;;;;;;;28.52;44.63;101019.84;143728;735;47010;-82
2023/06/15 09:01:58;;;;;;;4.20;2.80;;;;;;;28.51;45.00;101018.22;143731;574;45927;-81
2023/06/15 09:04:27;;;;;;;12.52;3.42;;;;;;;28.40;45.35;101011.31;143724;573;47008;-80
2023/06/15 09:06:58;;;;;;;5.53;3.47;;;;;;;28.33;46.47;101013.69;143733;572;45010;-81
2023/06/15 09:09:25;;;;;;;4.60;4.00;;;;;;;28.34;47.39;100999.53;143727;609;47011;-81
2023/06/15 09:11:52;;;;;;;4.55;3.20;;;;;;;28.32;47.18;101001.00;143725;620;49006;-81
2023/06/15 09:14:19;;;;;;;5.80;3.33;;;;;;;28.41;48.21;100990.84;143729;590;45925;-81
2023/06/15 09:16:48;;;;;;;4.47;3.53;;;;;;;28.44;47.88;100987.44;143728;602;47004;-81
2023/06/15 09:19:16;;;;;;;3.85;3.45;;;;;;;28.55;47.45;100988.00;143732;712;45012;-81
2023/06/15 09:21:53;;;;;;;4.37;3.62;;;;;;;28.43;47.09;100974.75;143728;613;48004;-80
2023/06/15 09:24:24;;;;;;;4.95;3.20;;;;;;;28.44;47.19;100970.84;143730;761;46008;-82
2023/06/15 09:26:51;;;;;;;4.43;3.22;;;;;;;28.49;47.47;100964.41;143727;580;48004;-81
2023/06/15 09:29:18;;;;;;;5.53;3.45;;;;;;;28.61;47.74;100970.16;143730;633;47010;-80
2023/06/15 09:31:45;;;;;;;4.93;3.50;;;;;;;28.48;47.80;100946.19;143731;606;45927;-81
2023/06/15 09:34:13;;;;;;;5.37;3.72;;;;;;;28.49;47.69;100932.06;143731;578;45925;-81
2023/06/15 09:36:46;;;;;;;3.92;2.78;;;;;;;28.64;45.44;100921.72;143734;590;45010;-82
2023/06/15 09:39:14;;;;;;;3.67;3.22;;;;;;;28.65;45.96;100923.38;143729;609;46006;-82
2023/06/15 09:41:56;;;;;;;4.68;3.00;;;;;;;28.64;45.88;100917.03;143713;582;50004;-84
2023/06/15 09:44:23;;;;;;;6.10;3.58;;;;;;;28.58;46.32;100921.06;143726;599;47008;-83
2023/06/15 09:46:51;;;;;;;3.62;3.33;;;;;;;28.57;47.05;100936.00;143732;572;47004;-82
2023/06/15 09:49:35;;;;;;;4.93;3.42;;;;;;;28.72;46.71;100943.09;143731;589;46010;-85
2023/06/15 09:52:02;;;;;;;4.70;3.62;;;;;;;28.63;47.06;100944.97;143731;721;46010;-80
2023/06/15 09:54:30;;;;;;;3.67;3.08;;;;;;;28.56;47.93;100964.75;143722;576;47926;-82
2023/06/15 09:56:58;;;;;;;3.53;3.10;;;;;;;28.57;48.48;100956.19;143734;585;45010;-82
2023/06/15 09:59:24;;;;;;;5.70;3.80;;;;;;;28.76;48.79;100970.94;143730;695;46010;-81
2023/06/15 10:01:55;;;;;;;4.00;3.60;;;;;;;28.81;49.54;100981.88;143732;720;45012;-81
2023/06/15 10:04:25;;;;;;;4.25;3.85;;;;;;;28.85;49.73;100972.63;143732;604;45010;-81
2023/06/15 10:07:05;;;;;;;4.90;4.32;;;;;;;28.86;49.54;100982.53;143730;567;47002;-81
2023/06/15 10:09:39;;;;;;;4.72;3.62;;;;;;;28.77;49.15;100975.34;143732;608;45013;-80
2023/06/15 10:12:15;;;;;;;4.28;3.45;;;;;;;28.69;49.62;100976.88;143729;567;47004;-81
2023/06/15 10:15:02;;;;;;;4.62;3.70;;;;;;;28.53;48.27;100979.22;143732;574;45011;-81
2023/06/15 10:17:33;;;;;;;9.77;3.90;;;;;;;28.57;48.65;100988.50;143734;737;45010;-82
2023/06/15 10:20:07;;;;;;;7.32;3.50;;;;;;;28.43;49.14;100980.28;143732;719;45012;-79
2023/06/15 10:22:37;;;;;;;8.82;3.35;;;;;;;28.37;48.64;100974.06;143727;672;47006;-80
2023/06/15 10:25:05;;;;;;;3.65;3.20;;;;;;;28.31;45.91;100989.16;143728;597;48002;-80
2023/06/15 10:27:32;;;;;;;4.43;3.12;;;;;;;28.19;45.35;100981.41;143729;641;48004;-81
2023/06/15 10:30:44;;;;;;;3.50;3.15;;;;;;;28.32;44.80;100968.69;143732;728;45012;-81
2023/06/15 10:33:23;;;;;;;6.82;2.85;;;;;;;28.37;43.79;100951.97;143730;587;46006;-82
2023/06/15 10:35:58;;;;;;;8.48;3.20;;;;;;;28.49;43.11;100948.63;143732;755;45010;-80
2023/06/15 10:39:11;;;;;;;4.35;2.95;;;;;;;28.51;40.94;100938.09;143732;769;45010;-80
2023/06/15 10:41:38;;;;;;;5.00;2.67;;;;;;;28.40;39.37;100931.19;143728;657;48010;-81
2023/06/15 10:44:05;;;;;;;4.53;2.72;;;;;;;28.41;39.05;100921.78;143716;602;49579;-81
2023/06/15 10:46:33;;;;;;;5.07;2.95;;;;;;;28.37;39.83;100931.81;143732;708;45010;-82
2023/06/15 10:49:10;;;;;;;4.37;2.85;;;;;;;28.29;38.57;100912.09;143735;584;45010;-82
2023/06/15 10:51:41;;;;;;;2.50;2.30;;;;;;;28.37;39.02;100913.28;143728;624;47011;-81
2023/06/15 10:54:27;;;;;;;5.37;2.30;;;;;;;28.43;38.76;100925.84;143732;573;45012;-81
2023/06/15 10:56:55;;;;;;;5.62;2.55;;;;;;;28.42;38.21;100913.16;143734;573;45011;-81
2023/06/15 10:59:58;;;;;;;4.93;2.30;;;;;;;28.54;38.33;100940.22;143734;607;45011;-79
2023/06/15 11:02:49;;;;;;;5.72;2.47;;;;;;;28.36;38.41;100939.28;143730;586;46010;-81
2023/06/15 11:05:19;;;;;;;7.30;3.80;;;;;;;28.38;39.18;100931.50;143729;665;48004;-81
2023/06/15 11:07:49;;;;;;;5.07;2.97;;;;;;;28.48;40.11;100940.69;143731;667;45925;-80
2023/06/15 11:10:20;;;;;;;4.25;2.92;;;;;;;28.46;41.33;100948.47;143733;567;46006;-81
2023/06/15 11:12:51;;;;;;;8.10;2.70;;;;;;;28.55;42.20;100957.59;143725;594;47012;-83
2023/06/15 11:15:17;;;;;;;4.60;2.92;;;;;;;28.72;42.40;100965.19;143725;575;47006;-80
2023/06/15 11:17:57;;;;;;;4.03;2.72;;;;;;;28.76;40.81;100969.00;143732;629;45010;-80
2023/06/15 11:21:01;;;;;;;4.10;2.95;;;;;;;29.00;39.97;100971.41;143734;578;45010;-82
2023/06/15 11:23:33;;;;;;;3.40;2.95;;;;;;;28.99;36.01;100971.69;143732;641;45012;-80
2023/06/15 11:26:01;;;;;;;2.75;2.20;;;;;;;29.01;37.30;100972.19;143723;696;48006;-81
2023/06/15 11:28:33;;;;;;;3.97;2.50;;;;;;;29.17;37.16;100961.53;143727;667;48008;-80
2023/06/15 11:31:03;;;;;;;3.55;2.80;;;;;;;29.17;37.20;100956.00;143720;609;49006;-81
2023/06/15 11:33:35;;;;;;;3.00;2.42;;;;;;;29.07;37.14;100947.97;143725;649;47008;-80